Time;durP1;ratioP1;P1;durP2;ratioP2;P2;SDS_P1;SDS_P2;PMS_P1;PMS_P2;Temp;Humidity;BMP_temperature;BMP_pressure;BME280_temperature;BME280_humidity;BME280_pressure;Samples;Min_cycle;Max_cycle;Signal;HPM_P1;HPM_P2
2023/01/07 00:01:09;;;;;;;10.70;6.75;;;11.10;99.90;;;;;;5094503;28;20073;-73
2023/01/07 00:03:40;;;;;;;10.57;6.57;;;11.10;99.90;;;;;;5091793;28;20105;-74
2023/01/07 00:06:09;;;;;;;13.02;7.32;;;11.10;99.90;;;;;;5100764;28;20477;-74
2023/01/07 00:08:37;;;;;;;9.40;6.65;;;11.10;99.90;;;;;;5101856;28;20039;-74
2023/01/07 00:11:05;;;;;;;8.05;6.20;;;11.00;99.90;;;;;;5090189;28;20043;-75
2023/01/07 00:13:31;;;;;;;9.98;6.45;;;11.00;99.90;;;;;;5095446;28;20068;-74
2023/01/07 00:16:03;;;;;;;9.38;7.28;;;11.00;99.90;;;;;;5092662;28;20031;-74
2023/01/07 00:18:29;;;;;;;10.33;6.20;;;11.00;99.90;;;;;;5091384;28;20032;-72
2023/01/07 00:20:58;;;;;;;9.80;6.93;;;10.90;99.90;;;;;;5097957;28;20483;-73
2023/01/07 00:23:25;;;;;;;9.55;6.47;;;10.90;99.90;;;;;;5076175;28;20047;-74
2023/01/07 00:25:57;;;;;;;9.02;5.82;;;10.90;99.90;;;;;;5096500;28;20027;-75
2023/01/07 00:28:23;;;;;;;7.30;6.05;;;10.90;99.90;;;;;;5092585;28;20027;-74
2023/01/07 00:30:48;;;;;;;8.70;6.60;;;10.80;99.90;;;;;;5093772;28;20078;-74
2023/01/07 00:33:15;;;;;;;8.23;6.18;;;10.80;99.90;;;;;;5097136;28;20034;-74
2023/01/07 00:35:43;;;;;;;8.88;6.00;;;10.80;99.90;;;;;;5105124;28;20111;-74
2023/01/07 00:38:09;;;;;;;14.43;6.45;;;10.80;99.90;;;;;;5091348;28;20031;-74
2023/01/07 00:40:34;;;;;;;8.90;6.22;;;10.80;99.90;;;;;;5099989;28;20487;-74
2023/01/07 00:43:00;;;;;;;10.57;6.07;;;10.70;99.90;;;;;;5090235;28;20047;-74
2023/01/07 00:45:28;;;;;;;9.88;6.57;;;10.70;99.90;;;;;;5092462;28;20020;-74
2023/01/07 00:47:55;;;;;;;12.13;7.15;;;10.70;99.90;;;;;;5103657;28;20785;-73
2023/01/07 00:50:25;;;;;;;12.30;7.53;;;10.70;99.90;;;;;;5084458;28;20031;-74
2023/01/07 00:52:52;;;;;;;10.10;6.78;;;10.70;99.90;;;;;;5098866;28;20085;-73
2023/01/07 00:55:17;;;;;;;11.75;6.82;;;10.60;99.90;;;;;;5092761;28;20032;-74
2023/01/07 00:57:43;;;;;;;9.85;6.60;;;10.60;99.90;;;;;;5095835;28;20421;-74
2023/01/07 01:00:12;;;;;;;8.73;6.68;;;10.60;99.90;;;;;;5090532;28;20099;-74
2023/01/07 01:02:37;;;;;;;10.93;7.13;;;10.60;99.90;;;;;;5095041;28;20383;-75
2023/01/07 01:05:04;;;;;;;9.40;6.55;;;10.60;99.90;;;;;;5096767;28;20027;-74
2023/01/07 01:07:30;;;;;;;10.25;6.88;;;10.60;99.90;;;;;;5101366;28;20024;-74
2023/01/07 01:09:55;;;;;;;8.85;5.95;;;10.60;99.90;;;;;;5103332;28;20034;-72
2023/01/07 01:12:21;;;;;;;10.13;6.82;;;10.70;99.90;;;;;;5084557;28;20499;-73
2023/01/07 01:14:47;;;;;;;10.10;7.50;;;10.70;99.90;;;;;;5095956;28;20031;-72
2023/01/07 01:17:12;;;;;;;12.70;6.07;;;10.80;99.90;;;;;;5096053;28;20229;-73
2023/01/07 01:19:38;;;;;;;8.88;6.07;;;10.80;99.90;;;;;;5091220;28;20036;-75
2023/01/07 01:22:04;;;;;;;8.43;5.75;;;10.90;99.90;;;;;;5076508;28;20043;-72
2023/01/07 01:24:29;;;;;;;9.63;6.20;;;10.90;99.90;;;;;;5087075;28;20024;-73
2023/01/07 01:26:55;;;;;;;11.05;6.07;;;10.90;99.90;;;;;;5082871;28;20115;-74
2023/01/07 01:29:21;;;;;;;10.93;6.07;;;10.90;99.90;;;;;;5087589;28;20054;-74
2023/01/07 01:31:47;;;;;;;8.63;5.93;;;10.90;99.90;;;;;;5088767;28;20401;-74
2023/01/07 01:34:19;;;;;;;8.40;5.60;;;10.90;99.90;;;;;;5091784;28;20087;-74
2023/01/07 01:36:45;;;;;;;11.35;5.90;;;10.80;99.90;;;;;;5090585;28;20051;-73
2023/01/07 01:39:10;;;;;;;8.75;5.85;;;10.70;99.90;;;;;;5090028;28;20099;-74
2023/01/07 01:41:39;;;;;;;10.63;6.55;;;10.60;99.90;;;;;;5090868;28;20059;-74
2023/01/07 01:44:38;;;;;;;9.80;6.00;;;10.60;99.90;;;;;;5095075;28;20056;-73
2023/01/07 01:47:12;;;;;;;9.80;6.78;;;10.50;99.90;;;;;;5085074;28;20074;-74
2023/01/07 01:49:44;;;;;;;8.40;5.97;;;10.50;99.90;;;;;;5089626;28;20119;-72
2023/01/07 01:52:14;;;;;;;10.23;5.90;;;10.30;99.90;;;;;;5086553;28;20047;-73
2023/01/07 01:54:43;;;;;;;9.65;5.97;;;10.30;99.90;;;;;;5093917;28;20500;-74
2023/01/07 01:57:09;;;;;;;9.98;6.47;;;10.20;99.90;;;;;;5086904;28;20060;-74
2023/01/07 01:59:42;;;;;;;6.65;5.50;;;10.20;99.90;;;;;;5091158;28;20028;-73
2023/01/07 02:02:09;;;;;;;7.88;5.82;;;10.20;99.90;;;;;;5090314;28;20077;-74
2023/01/07 02:04:36;;;;;;;9.75;5.82;;;10.10;99.90;;;;;;5085772;28;20024;-73
2023/01/07 02:07:03;;;;;;;8.85;5.55;;;10.10;99.90;;;;;;5090166;28;20038;-73
2023/01/07 02:09:29;;;;;;;10.23;6.38;;;10.10;99.90;;;;;;5090704;28;20024;-74
2023/01/07 02:11:55;;;;;;;10.80;6.18;;;10.10;99.90;;;;;;5086036;28;20032;-74
2023/01/07 02:14:45;;;;;;;9.48;5.53;;;10.10;99.90;;;;;;5090850;28;20371;-73
2023/01/07 02:17:35;;;;;;;9.70;6.15;;;10.20;99.90;;;;;;5087515;28;20036;-73
2023/01/07 02:20:21;;;;;;;6.47;5.30;;;10.20;99.90;;;;;;5084781;28;20032;-74
2023/01/07 02:23:17;;;;;;;7.80;5.97;;;10.20;99.90;;;;;;5083772;28;20032;-74
2023/01/07 02:26:11;;;;;;;8.85;6.05;;;10.20;99.90;;;;;;5089545;28;20028;-74
2023/01/07 02:28:45;;;;;;;8.25;5.55;;;10.20;99.90;;;;;;5089282;28;20028;-73
2023/01/07 02:31:41;;;;;;;7.70;5.28;;;10.20;99.90;;;;;;5088706;28;20391;-73
2023/01/07 02:34:16;;;;;;;9.82;5.43;;;10.10;99.90;;;;;;5085819;28;20035;-73
2023/01/07 02:37:23;;;;;;;8.25;5.40;;;10.10;99.90;;;;;;5089459;28;20063;-72
2023/01/07 02:40:23;;;;;;;9.85;5.75;;;10.10;99.90;;;;;;5048147;28;20046;-73
2023/01/07 02:43:11;;;;;;;11.18;5.30;;;10.10;99.90;;;;;;5086013;28;20048;-73
2023/01/07 02:46:04;;;;;;;7.25;5.18;;;10.10;99.90;;;;;;5082860;28;20395;-74
2023/01/07 02:48:32;;;;;;;10.38;5.95;;;10.10;99.90;;;;;;5089067;28;20069;-72
2023/01/07 02:50:57;;;;;;;8.07;4.93;;;10.00;99.90;;;;;;5090852;28;20036;-73
2023/01/07 02:53:23;;;;;;;10.38;5.53;;;10.00;99.90;;;;;;5089708;28;20384;-73
2023/01/07 02:56:11;;;;;;;8.43;5.70;;;10.00;99.90;;;;;;5098799;28;20025;-72
2023/01/07 02:59:03;;;;;;;8.85;5.10;;;10.00;99.90;;;;;;5084636;28;20016;-72
2023/01/07 03:01:34;;;;;;;8.15;5.20;;;9.90;99.90;;;;;;5090261;28;20025;-72
2023/01/07 03:04:11;;;;;;;7.28;5.38;;;9.90;99.90;;;;;;5085391;28;20016;-72
2023/01/07 03:06:54;;;;;;;6.70;5.05;;;9.90;99.90;;;;;;5087418;28;20024;-72
2023/01/07 03:09:37;;;;;;;8.00;5.07;;;9.80;99.90;;;;;;5090040;28;20032;-73
2023/01/07 03:12:28;;;;;;;10.00;5.35;;;9.80;99.90;;;;;;5085214;28;20064;-72
2023/01/07 03:15:37;;;;;;;8.63;4.88;;;9.80;99.90;;;;;;5085666;28;20503;-73
2023/01/07 03:18:12;;;;;;;7.82;4.70;;;9.90;99.90;;;;;;5043852;28;20103;-73
2023/01/07 03:20:40;;;;;;;10.15;5.00;;;9.80;99.90;;;;;;5095961;28;20488;-72
2023/01/07 03:23:09;;;;;;;7.75;4.80;;;9.80;99.90;;;;;;5092976;28;20500;-72
2023/01/07 03:25:40;;;;;;;10.45;4.93;;;9.90;99.90;;;;;;5090092;28;20024;-73
2023/01/07 03:28:08;;;;;;;6.47;4.93;;;9.90;99.90;;;;;;5091541;28;20027;-73
2023/01/07 03:30:35;;;;;;;6.30;3.83;;;9.90;99.90;;;;;;5092771;28;20019;-73
2023/01/07 03:33:10;;;;;;;6.05;4.13;;;9.90;99.90;;;;;;5086004;28;20075;-73
2023/01/07 03:35:38;;;;;;;7.75;4.22;;;9.90;99.90;;;;;;5091916;28;20444;-73
2023/01/07 03:38:06;;;;;;;7.75;4.78;;;9.80;99.90;;;;;;5090304;28;21107;-73
2023/01/07 03:40:31;;;;;;;7.10;3.97;;;9.80;99.90;;;;;;5092993;28;20032;-72
2023/01/07 03:42:58;;;;;;;6.45;3.78;;;9.80;99.90;;;;;;5092939;28;20046;-73
2023/01/07 03:45:25;;;;;;;9.98;4.38;;;9.70;99.90;;;;;;5093146;28;20387;-73
2023/01/07 03:47:54;;;;;;;7.35;3.78;;;9.70;99.90;;;;;;5094316;28;20024;-73
2023/01/07 03:50:20;;;;;;;6.68;4.22;;;9.70;99.90;;;;;;5087562;28;20048;-73
2023/01/07 03:52:47;;;;;;;6.32;4.13;;;9.60;99.90;;;;;;5085854;28;20548;-73
2023/01/07 03:55:13;;;;;;;7.43;3.90;;;9.60;99.90;;;;;;5104010;28;20046;-73
2023/01/07 03:57:38;;;;;;;9.10;3.65;;;9.60;99.90;;;;;;5086653;28;20132;-72
2023/01/07 04:00:07;;;;;;;6.75;3.75;;;9.60;99.90;;;;;;5092551;28;20008;-72
2023/01/07 04:02:33;;;;;;;6.55;3.08;;;9.60;99.90;;;;;;5092880;28;20169;-72
2023/01/07 04:04:59;;;;;;;9.07;3.53;;;9.60;99.90;;;;;;5097714;28;20102;-73
2023/01/07 04:07:24;;;;;;;6.85;3.63;;;9.60;99.90;;;;;;5089324;28;20391;-73
2023/01/07 04:09:50;;;;;;;7.90;3.75;;;9.60;99.90;;;;;;5092206;28;20019;-73
2023/01/07 04:12:16;;;;;;;5.43;3.35;;;9.60;99.90;;;;;;5113958;28;20035;-72
2023/01/07 04:14:42;;;;;;;7.13;3.67;;;9.70;99.90;;;;;;5099880;28;20028;-72
2023/01/07 04:17:08;;;;;;;6.95;4.00;;;9.70;99.90;;;;;;5091502;28;20476;-72
2023/01/07 04:19:33;;;;;;;8.30;3.67;;;9.70;99.90;;;;;;5083043;28;20104;-72
2023/01/07 04:21:59;;;;;;;6.00;3.15;;;9.70;99.90;;;;;;5091632;28;20051;-73
2023/01/07 04:24:24;;;;;;;6.00;3.35;;;9.70;99.90;;;;;;5093288;28;20490;-73
2023/01/07 04:26:50;;;;;;;6.95;3.13;;;9.80;99.90;;;;;;5092108;28;20028;-74
2023/01/07 04:29:15;;;;;;;6.88;3.33;;;9.80;99.90;;;;;;5093293;28;20059;-73
2023/01/07 04:31:41;;;;;;;4.82;3.05;;;9.70;99.90;;;;;;5091365;28;20469;-74
2023/01/07 04:34:06;;;;;;;4.60;3.22;;;9.80;99.90;;;;;;5086082;28;20474;-74
2023/01/07 04:36:32;;;;;;;4.20;2.75;;;9.80;99.90;;;;;;5092008;28;20419;-74
2023/01/07 04:38:57;;;;;;;6.50;2.75;;;9.90;99.90;;;;;;5091489;28;20053;-73
2023/01/07 04:41:23;;;;;;;5.35;3.03;;;9.90;99.90;;;;;;5091939;28;20028;-74
2023/01/07 04:43:48;;;;;;;5.05;2.70;;;9.90;99.90;;;;;;5091558;28;20069;-74
2023/01/07 04:46:14;;;;;;;5.65;3.28;;;10.00;99.90;;;;;;5089789;28;20035;-74
2023/01/07 04:48:39;;;;;;;4.20;3.03;;;10.00;99.90;;;;;;5091874;28;20024;-73
2023/01/07 04:51:05;;;;;;;5.25;2.40;;;10.00;99.90;;;;;;5090245;28;20147;-74
2023/01/07 04:53:31;;;;;;;4.35;2.20;;;10.00;99.90;;;;;;5078010;28;20422;-73
2023/01/07 04:55:56;;;;;;;3.50;2.15;;;10.10;99.90;;;;;;5090901;28;20026;-74
2023/01/07 04:58:22;;;;;;;4.43;3.13;;;10.10;99.90;;;;;;5090748;28;20024;-73
2023/01/07 05:00:48;;;;;;;3.15;2.33;;;10.10;99.90;;;;;;5090442;28;20048;-73
2023/01/07 05:03:14;;;;;;;4.25;2.40;;;10.10;99.90;;;;;;5091435;28;20025;-74
2023/01/07 05:05:39;;;;;;;4.78;2.67;;;10.10;99.90;;;;;;5082788;28;20029;-74
2023/01/07 05:08:05;;;;;;;4.47;2.50;;;10.10;99.90;;;;;;5089230;28;20086;-74
2023/01/07 05:10:31;;;;;;;3.40;2.53;;;10.10;99.90;;;;;;5095780;28;20028;-71
2023/01/07 05:12:57;;;;;;;4.10;2.15;;;10.10;99.90;;;;;;5092354;28;20059;-72
2023/01/07 05:15:22;;;;;;;5.78;2.10;;;10.20;99.90;;;;;;5092337;28;20488;-72
2023/01/07 05:17:48;;;;;;;4.20;2.20;;;10.20;99.90;;;;;;5084247;28;20056;-72
2023/01/07 05:20:14;;;;;;;4.65;2.15;;;10.20;99.90;;;;;;5089176;28;20028;-72
2023/01/07 05:22:40;;;;;;;3.40;2.17;;;10.20;99.90;;;;;;5089706;28;20095;-72
2023/01/07 05:25:06;;;;;;;5.10;2.50;;;10.20;99.90;;;;;;5083875;28;20398;-72
2023/01/07 05:27:31;;;;;;;3.25;2.40;;;10.20;99.90;;;;;;5089150;28;20024;-74
2023/01/07 05:29:57;;;;;;;5.22;2.25;;;10.30;99.90;;;;;;5089761;28;20051;-74
2023/01/07 05:32:22;;;;;;;3.25;1.92;;;10.30;99.90;;;;;;5101698;28;20449;-74
2023/01/07 05:34:48;;;;;;;5.00;2.17;;;10.30;99.90;;;;;;5094394;28;20513;-74
2023/01/07 05:37:13;;;;;;;4.47;2.50;;;10.30;99.90;;;;;;5095594;28;20376;-74
2023/01/07 05:39:39;;;;;;;3.58;1.88;;;10.30;99.90;;;;;;5083507;28;20020;-73
2023/01/07 05:42:05;;;;;;;3.83;2.20;;;10.30;99.90;;;;;;5088402;28;20028;-74
2023/01/07 05:44:30;;;;;;;4.35;2.30;;;10.30;99.90;;;;;;5084703;28;20364;-74
2023/01/07 05:46:56;;;;;;;4.70;2.05;;;10.30;99.90;;;;;;5089910;28;20023;-74
2023/01/07 05:49:21;;;;;;;5.35;2.10;;;10.30;99.90;;;;;;5085005;28;20033;-74
2023/01/07 05:51:47;;;;;;;5.25;2.63;;;10.40;99.90;;;;;;5080107;28;20051;-74
2023/01/07 05:54:12;;;;;;;7.32;2.00;;;10.40;99.90;;;;;;5090470;28;20028;-74
2023/01/07 05:56:38;;;;;;;3.78;1.85;;;10.40;99.90;;;;;;5090604;28;20119;-74
2023/01/07 05:59:03;;;;;;;4.60;1.98;;;10.40;99.90;;;;;;5088806;28;20103;-74
2023/01/07 06:01:29;;;;;;;4.57;1.77;;;10.40;99.90;;;;;;5081372;28;20030;-73
2023/01/07 06:03:54;;;;;;;5.78;2.10;;;10.40;99.90;;;;;;5090204;28;20031;-73
2023/01/07 06:06:20;;;;;;;5.78;1.88;;;10.40;99.90;;;;;;5085953;28;20040;-74
2023/01/07 06:08:45;;;;;;;3.67;1.60;;;10.40;99.90;;;;;;5088684;28;20487;-73
2023/01/07 06:11:11;;;;;;;3.13;1.90;;;10.40;99.90;;;;;;5084941;28;20123;-73
2023/01/07 06:13:36;;;;;;;5.90;1.58;;;10.40;99.90;;;;;;5094808;28;20027;-73
2023/01/07 06:16:07;;;;;;;4.35;1.50;;;10.40;99.90;;;;;;5092095;28;20107;-73
2023/01/07 06:18:34;;;;;;;3.63;1.50;;;10.40;99.90;;;;;;5086147;28;20089;-73
2023/01/07 06:20:59;;;;;;;5.60;1.05;;;10.40;99.90;;;;;;5089564;28;20414;-74
2023/01/07 06:23:25;;;;;;;5.05;2.33;;;10.40;99.90;;;;;;5089577;28;20028;-74
2023/01/07 06:25:51;;;;;;;2.22;1.30;;;10.40;99.90;;;;;;5089993;28;20501;-74
2023/01/07 06:28:16;;;;;;;3.58;1.15;;;10.50;99.90;;;;;;5089734;28;20028;-74
2023/01/07 06:30:45;;;;;;;2.60;1.35;;;10.40;99.90;;;;;;5085946;28;20078;-73
2023/01/07 06:33:12;;;;;;;4.25;1.50;;;10.40;99.90;;;;;;5087058;28;20076;-74
2023/01/07 06:35:38;;;;;;;3.33;1.60;;;10.40;99.90;;;;;;5083186;28;20054;-74
2023/01/07 06:38:03;;;;;;;3.42;0.90;;;10.40;99.90;;;;;;5100314;28;20028;-74
2023/01/07 06:40:29;;;;;;;3.58;0.90;;;10.40;99.90;;;;;;5089108;28;20020;-73
2023/01/07 06:42:54;;;;;;;3.75;1.00;;;10.50;99.90;;;;;;5090754;28;20016;-74
2023/01/07 06:45:21;;;;;;;4.00;0.98;;;10.50;99.90;;;;;;5089336;28;20471;-73
2023/01/07 06:47:47;;;;;;;1.70;0.88;;;10.50;99.90;;;;;;5092057;28;20026;-73
2023/01/07 06:50:13;;;;;;;3.25;1.00;;;10.50;99.90;;;;;;5087151;28;20025;-74
2023/01/07 06:52:39;;;;;;;2.55;0.90;;;10.50;99.90;;;;;;5091471;28;20090;-74
2023/01/07 06:55:04;;;;;;;3.60;0.90;;;10.50;99.90;;;;;;5096648;28;20027;-74
2023/01/07 06:57:30;;;;;;;2.97;0.80;;;10.50;99.90;;;;;;5094510;28;20031;-74
2023/01/07 06:59:56;;;;;;;2.92;0.90;;;10.50;99.90;;;;;;5091731;28;20356;-74
2023/01/07 07:02:25;;;;;;;2.67;0.77;;;10.50;99.90;;;;;;5093698;28;20492;-73
2023/01/07 07:04:51;;;;;;;2.80;0.88;;;10.50;99.90;;;;;;5091345;28;20020;-74
2023/01/07 07:07:17;;;;;;;2.85;0.70;;;10.50;99.90;;;;;;5093067;28;20034;-73
2023/01/07 07:09:43;;;;;;;1.83;0.70;;;10.50;99.90;;;;;;5086414;28;20034;-74
2023/01/07 07:12:09;;;;;;;4.72;0.80;;;10.50;99.90;;;;;;5090621;28;20481;-74
2023/01/07 07:14:34;;;;;;;1.67;0.60;;;10.50;99.90;;;;;;5094876;28;20039;-74
2023/01/07 07:17:01;;;;;;;2.75;0.60;;;10.50;99.90;;;;;;5091341;28;20324;-74
2023/01/07 07:19:26;;;;;;;1.98;0.60;;;10.50;99.90;;;;;;5090201;28;20048;-73
2023/01/07 07:21:52;;;;;;;3.90;0.80;;;10.50;99.90;;;;;;5094256;28;20039;-74
2023/01/07 07:24:18;;;;;;;1.55;0.57;;;10.50;99.90;;;;;;5091453;28;20024;-73
2023/01/07 07:26:43;;;;;;;3.08;0.60;;;10.50;99.90;;;;;;5092386;28;20107;-73
2023/01/07 07:29:09;;;;;;;2.67;0.50;;;10.50;99.90;;;;;;5092977;28;20032;-73
2023/01/07 07:31:35;;;;;;;2.85;0.60;;;10.40;99.90;;;;;;5092388;28;20055;-73
2023/01/07 07:34:01;;;;;;;2.22;0.60;;;10.40;99.90;;;;;;5100071;28;20028;-73
2023/01/07 07:36:27;;;;;;;2.38;0.60;;;10.40;99.90;;;;;;5098228;28;20360;-74
2023/01/07 07:38:52;;;;;;;1.23;0.50;;;10.40;99.90;;;;;;5095649;28;20024;-73
2023/01/07 07:41:18;;;;;;;1.65;0.60;;;10.40;99.90;;;;;;5080832;28;20016;-73
2023/01/07 07:43:43;;;;;;;4.53;0.77;;;10.40;99.90;;;;;;5085452;28;20557;-74
2023/01/07 07:46:09;;;;;;;1.65;0.50;;;10.40;99.90;;;;;;5098725;28;20481;-73
2023/01/07 07:48:34;;;;;;;1.35;0.50;;;10.30;99.90;;;;;;5100571;28;20036;-73
2023/01/07 07:51:00;;;;;;;1.85;0.50;;;10.30;99.90;;;;;;5099235;28;20028;-73
2023/01/07 07:53:26;;;;;;;1.63;0.40;;;10.40;99.90;;;;;;5103098;28;20028;-73
2023/01/07 07:55:52;;;;;;;2.72;0.60;;;10.30;99.90;;;;;;5100622;28;20157;-73
2023/01/07 07:58:18;;;;;;;1.85;0.40;;;10.30;99.90;;;;;;5094025;28;20024;-73
2023/01/07 08:00:44;;;;;;;2.10;0.60;;;10.30;99.90;;;;;;5089644;28;20145;-74
2023/01/07 08:03:09;;;;;;;3.00;0.50;;;10.30;99.90;;;;;;5090938;28;20034;-74
2023/01/07 08:05:38;;;;;;;2.85;0.50;;;10.20;99.90;;;;;;5092309;28;20042;-73
2023/01/07 08:08:04;;;;;;;1.98;0.60;;;10.20;99.90;;;;;;5098432;28;20031;-72
2023/01/07 08:10:30;;;;;;;2.50;0.70;;;10.20;99.90;;;;;;5103847;28;20020;-73
2023/01/07 08:12:55;;;;;;;2.00;0.40;;;10.20;99.90;;;;;;5093031;28;20031;-74
2023/01/07 08:15:21;;;;;;;2.83;0.50;;;10.20;99.90;;;;;;5092013;28;20144;-74
2023/01/07 08:17:46;;;;;;;1.45;0.50;;;10.20;99.90;;;;;;5088406;28;20036;-73
2023/01/07 08:20:12;;;;;;;1.83;0.50;;;10.30;99.90;;;;;;5087970;28;20024;-73
2023/01/07 08:22:37;;;;;;;1.60;0.50;;;10.30;99.90;;;;;;5093213;28;20027;-74
2023/01/07 08:25:03;;;;;;;0.93;0.50;;;10.30;99.90;;;;;;5089895;28;20033;-74
2023/01/07 08:27:29;;;;;;;1.73;0.50;;;10.30;99.90;;;;;;5092116;28;20052;-73
2023/01/07 08:29:55;;;;;;;1.63;0.50;;;10.30;99.90;;;;;;5089863;28;20471;-73
2023/01/07 08:32:21;;;;;;;2.28;0.57;;;10.40;99.90;;;;;;5091101;28;20055;-74
2023/01/07 08:34:47;;;;;;;1.77;0.50;;;10.40;99.90;;;;;;5092135;28;20043;-73
2023/01/07 08:37:13;;;;;;;1.60;0.65;;;10.40;99.90;;;;;;5093034;28;20059;-73
2023/01/07 08:39:38;;;;;;;3.05;0.55;;;10.40;99.90;;;;;;5092632;28;20028;-73
2023/01/07 08:42:04;;;;;;;1.83;0.50;;;10.50;99.90;;;;;;5098036;28;20028;-73
2023/01/07 08:44:31;;;;;;;2.38;0.50;;;10.50;99.90;;;;;;5093808;28;20028;-73
2023/01/07 08:46:56;;;;;;;3.72;0.57;;;10.50;99.90;;;;;;5090813;28;20032;-73
2023/01/07 08:49:22;;;;;;;3.10;0.68;;;10.50;99.90;;;;;;5105299;28;20367;-73
2023/01/07 08:51:47;;;;;;;2.75;0.65;;;10.50;99.90;;;;;;5079424;28;20188;-75
2023/01/07 08:54:13;;;;;;;2.38;0.60;;;10.50;99.90;;;;;;5092914;28;20024;-75
2023/01/07 08:56:39;;;;;;;2.30;0.60;;;10.60;99.90;;;;;;5082277;28;20024;-73
2023/01/07 08:59:04;;;;;;;1.75;0.60;;;10.60;99.90;;;;;;5085368;28;20498;-74
2023/01/07 09:01:30;;;;;;;1.15;0.45;;;10.60;99.90;;;;;;5098678;28;20024;-73
2023/01/07 09:03:55;;;;;;;1.27;0.60;;;10.60;99.90;;;;;;5100943;28;20027;-73
2023/01/07 09:06:22;;;;;;;2.47;0.50;;;10.60;99.90;;;;;;5088362;28;20021;-73
2023/01/07 09:08:47;;;;;;;1.23;0.40;;;10.70;99.90;;;;;;5087493;28;20046;-73
2023/01/07 09:11:13;;;;;;;1.88;0.50;;;10.70;99.90;;;;;;5091256;28;20487;-73
2023/01/07 09:13:39;;;;;;;1.35;0.45;;;10.80;99.90;;;;;;5091665;28;20028;-73
2023/01/07 09:16:05;;;;;;;3.17;0.60;;;10.80;99.90;;;;;;5091234;28;20490;-73
2023/01/07 09:18:30;;;;;;;2.30;0.50;;;10.80;99.90;;;;;;5088963;28;20161;-72
2023/01/07 09:20:56;;;;;;;1.20;0.50;;;10.80;99.90;;;;;;5079929;28;20024;-72
2023/01/07 09:23:21;;;;;;;1.42;0.57;;;10.80;99.90;;;;;;5087035;28;20016;-72
2023/01/07 09:25:47;;;;;;;3.65;0.60;;;10.80;99.90;;;;;;5083744;28;20068;-72
2023/01/07 09:28:12;;;;;;;1.80;0.60;;;10.80;99.90;;;;;;5085877;28;20166;-72
2023/01/07 09:30:38;;;;;;;1.60;0.50;;;10.80;99.90;;;;;;5085884;28;20569;-72
2023/01/07 09:33:04;;;;;;;1.50;0.60;;;10.90;99.90;;;;;;5090439;28;20031;-72
2023/01/07 09:35:29;;;;;;;1.10;0.30;;;10.80;99.90;;;;;;5091616;28;20012;-72
2023/01/07 09:37:55;;;;;;;3.85;0.60;;;10.90;99.90;;;;;;5091508;28;20043;-72
2023/01/07 09:40:25;;;;;;;1.52;0.50;;;10.90;99.90;;;;;;5088805;28;20046;-72
2023/01/07 09:43:02;;;;;;;5.53;0.88;;;10.90;99.90;;;;;;5085874;28;20496;-72
2023/01/07 09:45:32;;;;;;;1.63;0.50;;;11.00;99.90;;;;;;5079260;28;20054;-72
2023/01/07 09:48:02;;;;;;;2.83;0.55;;;10.90;99.90;;;;;;5080541;28;20100;-73
2023/01/07 09:50:38;;;;;;;1.88;0.50;;;11.00;99.90;;;;;;5091753;28;20023;-74
2023/01/07 09:53:11;;;;;;;1.10;0.50;;;11.00;99.90;;;;;;5080761;28;20036;-72
2023/01/07 09:55:39;;;;;;;1.02;0.40;;;11.00;99.90;;;;;;5086062;28;20103;-73
2023/01/07 09:58:15;;;;;;;1.27;0.40;;;11.00;99.90;;;;;;5084063;28;20166;-74
2023/01/07 10:00:53;;;;;;;1.92;0.50;;;11.00;99.90;;;;;;5084163;28;20023;-74
2023/01/07 10:03:28;;;;;;;2.05;0.70;;;11.10;99.90;;;;;;5089709;28;20027;-73
2023/01/07 10:06:12;;;;;;;1.73;0.50;;;11.10;99.90;;;;;;5079545;28;20052;-74
2023/01/07 10:09:06;;;;;;;1.20;0.35;;;11.20;99.90;;;;;;5087225;28;20032;-75
2023/01/07 10:11:39;;;;;;;2.63;0.50;;;11.20;99.90;;;;;;5083721;28;20032;-73
2023/01/07 10:14:32;;;;;;;2.15;0.68;;;11.20;99.90;;;;;;5089632;28;20024;-74
2023/01/07 10:17:21;;;;;;;2.25;0.50;;;11.20;99.90;;;;;;5088441;28;20028;-74
2023/01/07 10:19:59;;;;;;;1.17;0.50;;;11.30;99.90;;;;;;5084792;28;20046;-73
2023/01/07 10:22:35;;;;;;;1.45;0.50;;;11.30;99.90;;;;;;5090491;28;20055;-74
2023/01/07 10:25:11;;;;;;;1.50;0.40;;;11.40;99.90;;;;;;5086390;28;20036;-73
2023/01/07 10:27:41;;;;;;;1.35;0.40;;;11.40;99.90;;;;;;5085736;28;20052;-73
2023/01/07 10:30:17;;;;;;;1.55;0.52;;;11.50;99.90;;;;;;5086668;28;20099;-74
2023/01/07 10:32:44;;;;;;;1.00;0.50;;;11.60;99.90;;;;;;5065721;28;20547;-73
2023/01/07 10:35:19;;;;;;;1.75;0.55;;;11.60;99.90;;;;;;5087392;28;20387;-73
2023/01/07 10:37:46;;;;;;;1.77;0.60;;;11.60;99.90;;;;;;5087545;28;20039;-74
2023/01/07 10:40:20;;;;;;;1.38;0.70;;;11.60;99.90;;;;;;5088018;28;20020;-74
2023/01/07 10:43:24;;;;;;;2.83;0.60;;;11.60;99.90;;;;;;5087641;28;21195;-74
2023/01/07 10:46:00;;;;;;;2.50;0.60;;;11.60;99.90;;;;;;5085764;28;20025;-74
2023/01/07 10:48:41;;;;;;;1.40;0.55;;;11.50;99.90;;;;;;5086767;28;20019;-73
2023/01/07 10:51:34;;;;;;;1.50;0.60;;;11.60;99.90;;;;;;5085227;28;20032;-73
2023/01/07 10:54:16;;;;;;;2.17;0.55;;;11.60;99.90;;;;;;5085725;28;20032;-73
2023/01/07 10:56:46;;;;;;;1.40;0.60;;;11.60;99.90;;;;;;5083447;28;20032;-73
2023/01/07 10:59:17;;;;;;;2.92;0.50;;;11.60;99.90;;;;;;5087673;28;20112;-73
2023/01/07 11:01:58;;;;;;;1.00;0.47;;;11.60;99.90;;;;;;5083500;28;20024;-73
2023/01/07 11:04:25;;;;;;;1.63;0.50;;;11.70;99.90;;;;;;5087485;28;20073;-73
2023/01/07 11:07:11;;;;;;;1.88;0.47;;;11.70;99.90;;;;;;5076190;28;20093;-73
2023/01/07 11:09:44;;;;;;;1.23;0.43;;;11.70;99.90;;;;;;5086048;28;20052;-73
2023/01/07 11:12:20;;;;;;;1.17;0.50;;;11.70;99.90;;;;;;5088728;28;20054;-73
2023/01/07 11:14:47;;;;;;;0.90;0.40;;;11.80;99.90;;;;;;5087692;28;20020;-73
2023/01/07 11:17:35;;;;;;;1.80;0.45;;;11.70;99.90;;;;;;5088405;28;20028;-73
2023/01/07 11:20:01;;;;;;;0.80;0.30;;;11.80;99.90;;;;;;5079301;28;20058;-73
2023/01/07 11:22:28;;;;;;;2.42;0.40;;;11.80;99.90;;;;;;5088890;28;20019;-73
2023/01/07 11:24:59;;;;;;;0.77;0.30;;;11.80;99.90;;;;;;5085450;28;20035;-73
2023/01/07 11:27:28;;;;;;;1.48;0.38;;;11.90;99.90;;;;;;5085523;28;20091;-73
2023/01/07 11:30:26;;;;;;;1.40;0.30;;;11.90;99.90;;;;;;5080904;28;20038;-73
2023/01/07 11:32:59;;;;;;;0.60;0.30;;;11.90;99.90;;;;;;5089876;28;20534;-74
2023/01/07 11:35:29;;;;;;;1.33;0.30;;;11.90;99.90;;;;;;5089418;28;20475;-73
2023/01/07 11:37:56;;;;;;;1.40;0.32;;;11.90;99.90;;;;;;5089757;28;20476;-73
2023/01/07 11:40:23;;;;;;;0.90;0.32;;;11.90;99.90;;;;;;5090100;28;20042;-73
2023/01/07 11:43:14;;;;;;;0.98;0.40;;;11.90;99.90;;;;;;5092856;28;20051;-73
2023/01/07 11:46:01;;;;;;;1.35;0.40;;;12.00;99.90;;;;;;5092429;28;20059;-73
2023/01/07 11:48:32;;;;;;;1.95;0.50;;;11.90;99.90;;;;;;5094144;28;20032;-73
2023/01/07 11:51:08;;;;;;;1.02;0.40;;;11.90;99.90;;;;;;5082141;28;20160;-72
2023/01/07 11:54:00;;;;;;;1.40;0.40;;;11.90;99.90;;;;;;5090617;28;20492;-73
2023/01/07 11:56:34;;;;;;;1.87;0.40;;;11.90;99.90;;;;;;5085494;28;20550;-73
2023/01/07 11:59:27;;;;;;;1.20;0.45;;;11.90;99.90;;;;;;5081440;28;20483;-73
2023/01/07 12:01:55;;;;;;;;;;;11.90;99.90;;;;;;5091173;28;20027;-73
2023/01/07 12:04:23;;;;;;;0.90;0.30;;;12.00;99.90;;;;;;5093689;28;19904;-74
2023/01/07 12:06:51;;;;;;;1.48;0.40;;;11.90;99.90;;;;;;5090082;28;20032;-73
2023/01/07 12:09:36;;;;;;;2.28;0.50;;;11.90;99.90;;;;;;5092868;28;20078;-73
2023/01/07 12:12:38;;;;;;;2.92;0.35;;;11.90;99.90;;;;;;5085690;28;20036;-73
2023/01/07 12:15:17;;;;;;;1.15;0.40;;;11.90;99.90;;;;;;5091218;28;20460;-74
2023/01/07 12:17:45;;;;;;;1.20;0.30;;;11.90;99.90;;;;;;5091572;28;20089;-74
2023/01/07 12:20:29;;;;;;;0.75;0.30;;;11.90;99.90;;;;;;5092237;28;20127;-73
2023/01/07 12:23:13;;;;;;;2.08;0.30;;;11.90;99.90;;;;;;5094293;28;20019;-74
2023/01/07 12:25:49;;;;;;;1.75;0.50;;;12.00;99.90;;;;;;5097065;28;20147;-73
2023/01/07 12:28:52;;;;;;;1.75;0.50;;;12.00;99.90;;;;;;5092106;28;20544;-73
2023/01/07 12:31:36;;;;;;;1.27;0.40;;;12.00;99.90;;;;;;5084592;28;20113;-73
2023/01/07 12:34:39;;;;;;;0.70;0.30;;;12.00;99.90;;;;;;5088676;28;20111;-74
2023/01/07 12:37:18;;;;;;;1.67;0.50;;;12.00;99.90;;;;;;5081221;28;20472;-73
2023/01/07 12:39:44;;;;;;;1.35;0.30;;;11.90;99.90;;;;;;5093882;28;20030;-73
2023/01/07 12:42:23;;;;;;;2.60;0.40;;;11.90;99.90;;;;;;5094857;28;20057;-74
2023/01/07 12:44:56;;;;;;;2.78;0.60;;;12.00;99.90;;;;;;5090668;28;20034;-73
2023/01/07 12:47:35;;;;;;;1.48;0.63;;;12.00;99.90;;;;;;5086252;28;20028;-73
2023/01/07 12:50:09;;;;;;;0.85;0.40;;;12.00;99.90;;;;;;5091820;28;20038;-73
2023/01/07 12:53:04;;;;;;;1.63;0.40;;;12.00;99.90;;;;;;5091574;28;20074;-74
2023/01/07 12:55:43;;;;;;;1.92;0.50;;;12.00;99.90;;;;;;5090991;28;20114;-73
2023/01/07 12:58:40;;;;;;;1.08;0.38;;;12.10;99.90;;;;;;5092129;28;20024;-73
2023/01/07 13:01:27;;;;;;;1.88;0.50;;;12.10;99.90;;;;;;5090206;28;20376;-71
2023/01/07 13:04:27;;;;;;;1.52;0.50;;;12.20;99.90;;;;;;5072226;28;20075;-72
2023/01/07 13:07:15;;;;;;;1.45;0.47;;;12.20;99.90;;;;;;5079041;28;20035;-72